createdAt,value
2022-09-26T00:00:42.127Z,6.78
2022-09-26T00:03:09.929Z,5.65
2022-09-26T00:05:39.091Z,3.78
2022-09-26T00:08:07.473Z,4.03
2022-09-26T00:10:35.072Z,4.75
2022-09-26T00:13:02.292Z,5.80
2022-09-26T00:15:29.385Z,5.72
2022-09-26T00:17:56.452Z,5.13
2022-09-26T00:20:23.464Z,5.63
2022-09-26T00:22:51.875Z,3.60
2022-09-26T00:25:19.517Z,4.53
2022-09-26T00:27:46.620Z,4.93
2022-09-26T00:30:13.664Z,3.95
2022-09-26T00:32:41.033Z,4.75
2022-09-26T00:35:09.153Z,4.78
2022-09-26T00:37:36.225Z,4.97
2022-09-26T00:40:05.331Z,5.32
2022-09-26T00:42:32.517Z,7.65
2022-09-26T00:44:59.543Z,3.75
2022-09-26T00:47:41.143Z,5.72
2022-09-26T00:50:23.480Z,4.00
2022-09-26T00:52:54.540Z,5.40
2022-09-26T00:55:30.791Z,4.47
2022-09-26T00:58:04.500Z,4.28
2022-09-26T01:00:31.920Z,4.10
2022-09-26T01:02:59.213Z,6.00
2022-09-26T01:05:26.493Z,4.63
2022-09-26T01:07:56.634Z,6.35
2022-09-26T01:10:28.849Z,4.75
2022-09-26T01:15:23.459Z,7.38
2022-09-26T01:17:51.411Z,8.18
2022-09-26T01:20:38.723Z,10.85
2022-09-26T01:23:46.390Z,13.60
2022-09-26T01:26:42.002Z,16.50
2022-09-26T01:29:44.937Z,13.32
2022-09-26T01:32:41.426Z,8.07
2022-09-26T01:35:15.760Z,9.75
2022-09-26T01:37:54.453Z,9.65
2022-09-26T01:40:31.756Z,9.65
2022-09-26T01:43:07.318Z,8.98
2022-09-26T01:45:44.353Z,8.15
2022-09-26T01:48:18.848Z,9.07
2022-09-26T01:50:50.947Z,11.85
2022-09-26T01:53:21.962Z,10.98
2022-09-26T01:55:57.804Z,8.55
2022-09-26T01:58:30.987Z,8.77
2022-09-26T02:01:01.685Z,9.25
2022-09-26T02:03:36.708Z,8.77
2022-09-26T02:06:09.279Z,7.20
2022-09-26T02:08:40.408Z,9.63
2022-09-26T02:11:12.876Z,10.88
2022-09-26T02:13:48.724Z,10.48
2022-09-26T02:16:22.601Z,9.40
2022-09-26T02:18:57.055Z,12.32
2022-09-26T02:21:24.829Z,10.68
2022-09-26T02:23:54.106Z,11.85
2022-09-26T02:26:23.494Z,11.65
2022-09-26T02:31:24.660Z,9.77
2022-09-26T02:33:54.385Z,12.73
2022-09-26T02:36:23.813Z,23.55
2022-09-26T02:38:50.909Z,64.78
2022-09-26T02:41:46.165Z,8.85
2022-09-26T02:44:29.293Z,18.95
2022-09-26T02:47:16.557Z,29.00
2022-09-26T02:50:01.782Z,27.10
2022-09-26T02:52:40.713Z,22.02
2022-09-26T02:55:20.228Z,26.90
2022-09-26T02:57:54.950Z,15.07
2022-09-26T03:00:25.556Z,11.10
2022-09-26T03:02:59.764Z,14.10
2022-09-26T03:05:31.086Z,8.82
2022-09-26T03:08:04.977Z,8.43
2022-09-26T03:10:34.020Z,9.82
2022-09-26T03:13:06.515Z,10.07
2022-09-26T03:15:37.457Z,13.15
2022-09-26T03:18:09.886Z,11.63
2022-09-26T03:20:38.743Z,12.52
2022-09-26T03:23:05.875Z,11.03
2022-09-26T03:25:33.585Z,11.13
2022-09-26T03:28:04.868Z,13.13
2022-09-26T03:30:32.063Z,11.50
2022-09-26T03:33:19.349Z,11.38
2022-09-26T03:35:48.646Z,12.93
2022-09-26T03:38:15.818Z,20.02
2022-09-26T03:40:49.758Z,25.60
2022-09-26T03:43:36.633Z,18.23
2022-09-26T03:46:04.985Z,16.25
2022-09-26T03:48:32.937Z,20.13
2022-09-26T03:51:07.482Z,17.17
2022-09-26T03:53:35.945Z,16.00
2022-09-26T03:56:07.320Z,19.25
2022-09-26T03:58:34.880Z,15.80
2022-09-26T04:01:08.203Z,15.45
2022-09-26T04:03:36.313Z,19.13
2022-09-26T04:06:06.271Z,16.25
2022-09-26T04:08:34.089Z,17.48
2022-09-26T04:11:03.059Z,13.27
2022-09-26T04:16:20.112Z,7.53
2022-09-26T04:18:56.849Z,9.25
2022-09-26T04:21:29.855Z,12.43
2022-09-26T04:23:59.164Z,12.27
2022-09-26T04:26:26.665Z,14.73
2022-09-26T04:28:56.567Z,17.58
2022-09-26T04:31:34.765Z,9.88
2022-09-26T04:34:09.811Z,9.73
2022-09-26T04:36:38.857Z,11.20
2022-09-26T04:39:06.609Z,20.27
2022-09-26T04:41:34.891Z,17.33
2022-09-26T04:44:02.629Z,15.30
2022-09-26T04:46:32.226Z,14.55
2022-09-26T04:49:01.652Z,17.57
2022-09-26T04:51:30.424Z,16.92
2022-09-26T04:54:00.244Z,11.75
2022-09-26T04:56:29.677Z,20.90
2022-09-26T04:58:58.250Z,16.70
2022-09-26T05:01:28.792Z,15.95
2022-09-26T05:04:16.317Z,14.30
2022-09-26T05:06:43.379Z,13.50
2022-09-26T05:09:22.551Z,18.38
2022-09-26T05:14:28.105Z,25.90
2022-09-26T05:16:55.318Z,13.88
2022-09-26T05:19:23.067Z,18.63
2022-09-26T05:22:19.665Z,18.85
2022-09-26T05:25:23.648Z,23.67
2022-09-26T05:27:50.855Z,19.35
2022-09-26T05:30:19.240Z,26.80
2022-09-26T05:32:48.512Z,20.02
2022-09-26T05:35:17.790Z,20.83
2022-09-26T05:37:45.213Z,18.40
2022-09-26T05:40:32.535Z,17.88
2022-09-26T05:43:01.659Z,18.13
2022-09-26T05:45:31.339Z,19.30
2022-09-26T05:47:59.831Z,16.17
2022-09-26T05:50:27.857Z,16.73
2022-09-26T05:52:57.420Z,21.92
2022-09-26T05:55:27.368Z,18.27
2022-09-26T05:58:14.197Z,18.08
2022-09-26T06:01:11.342Z,20.65
2022-09-26T06:03:41.789Z,19.30
2022-09-26T06:06:14.913Z,19.67
2022-09-26T06:08:43.005Z,20.80
2022-09-26T06:11:34.801Z,17.23
2022-09-26T06:14:02.966Z,18.85
2022-09-26T06:16:30.183Z,15.48
2022-09-26T06:18:58.544Z,17.48
2022-09-26T06:21:25.712Z,18.85
2022-09-26T06:23:57.858Z,20.95
2022-09-26T06:26:29.068Z,26.00
2022-09-26T06:29:00.313Z,17.73
2022-09-26T06:31:30.284Z,16.00
2022-09-26T06:34:09.605Z,20.13
2022-09-26T06:36:51.414Z,18.75
2022-09-26T06:39:18.554Z,16.15
2022-09-26T06:41:47.144Z,19.15
2022-09-26T06:44:30.730Z,16.98
2022-09-26T06:47:29.106Z,15.27
2022-09-26T06:52:56.983Z,13.90
2022-09-26T06:57:54.239Z,15.82
2022-09-26T07:00:26.893Z,14.35
2022-09-26T07:03:06.544Z,16.13
2022-09-26T07:05:47.453Z,15.90
2022-09-26T07:08:15.297Z,14.32
2022-09-26T07:10:42.714Z,13.98
2022-09-26T07:13:17.152Z,14.55
2022-09-26T07:15:46.517Z,16.02
2022-09-26T07:18:39.728Z,15.32
2022-09-26T07:21:25.836Z,14.68
2022-09-26T07:24:19.151Z,14.90
2022-09-26T07:26:46.292Z,17.00
2022-09-26T07:29:14.427Z,15.15
2022-09-26T07:31:43.124Z,15.82
2022-09-26T07:34:18.543Z,17.63
2022-09-26T07:36:47.606Z,22.25
2022-09-26T07:39:15.378Z,20.52
2022-09-26T07:41:43.892Z,20.45
2022-09-26T07:47:18.208Z,21.50
2022-09-26T07:50:04.338Z,19.13
2022-09-26T07:52:48.857Z,21.75
2022-09-26T07:55:25.686Z,22.48
2022-09-26T07:58:19.842Z,20.15
2022-09-26T08:01:15.186Z,15.95
2022-09-26T08:04:06.884Z,18.92
2022-09-26T08:06:37.780Z,17.50
2022-09-26T08:09:06.031Z,18.58
2022-09-26T08:11:51.692Z,15.98
2022-09-26T08:14:48.467Z,17.42
2022-09-26T08:17:22.666Z,18.83
2022-09-26T08:19:51.190Z,14.98
2022-09-26T08:22:18.974Z,15.10
2022-09-26T08:24:50.959Z,15.35
2022-09-26T08:27:48.562Z,13.18
2022-09-26T08:30:16.104Z,14.38
2022-09-26T08:32:44.531Z,15.55
2022-09-26T08:35:14.081Z,15.45
2022-09-26T08:38:01.958Z,17.92
2022-09-26T08:40:53.254Z,17.13
2022-09-26T08:43:56.442Z,19.05
2022-09-26T08:46:31.302Z,16.83
2022-09-26T08:49:42.471Z,13.82
2022-09-26T08:52:28.527Z,13.02
2022-09-26T08:54:58.486Z,12.43
2022-09-26T08:57:34.861Z,13.05
2022-09-26T09:00:15.811Z,15.95
2022-09-26T09:02:50.159Z,12.27
2022-09-26T09:05:21.224Z,10.32
2022-09-26T09:07:55.186Z,10.88
2022-09-26T09:10:36.005Z,10.25
2022-09-26T09:13:54.505Z,11.57
2022-09-26T09:16:53.361Z,11.27
2022-09-26T09:19:36.269Z,10.38
2022-09-26T09:22:45.004Z,9.00
2022-09-26T09:25:29.721Z,9.07
2022-09-26T09:28:13.774Z,9.52
2022-09-26T09:30:45.127Z,8.63
2022-09-26T09:33:39.597Z,7.65
2022-09-26T09:36:42.246Z,8.05
2022-09-26T09:39:28.615Z,9.43
2022-09-26T09:42:13.190Z,8.57
2022-09-26T09:44:46.998Z,7.90
2022-09-26T09:47:16.485Z,6.60
2022-09-26T09:49:46.235Z,6.88
2022-09-26T09:55:07.177Z,6.97
2022-09-26T09:57:49.212Z,6.20
2022-09-26T10:00:19.058Z,6.65
2022-09-26T10:03:19.711Z,6.18
2022-09-26T10:05:50.426Z,5.63
2022-09-26T10:08:32.454Z,6.75
2022-09-26T10:11:16.031Z,4.95
2022-09-26T10:14:03.499Z,6.10
2022-09-26T10:17:16.083Z,6.00
2022-09-26T10:20:37.811Z,6.88
2022-09-26T10:23:21.314Z,6.20
2022-09-26T10:25:50.816Z,6.18
2022-09-26T10:28:30.253Z,7.50
2022-09-26T10:31:04.802Z,5.35
2022-09-26T10:33:39.130Z,5.53
2022-09-26T10:36:18.449Z,5.50
2022-09-26T10:39:09.993Z,5.57
2022-09-26T10:44:23.373Z,5.25
2022-09-26T10:47:21.879Z,7.72
2022-09-26T10:50:07.166Z,5.05
2022-09-26T10:52:57.256Z,6.35
2022-09-26T10:55:32.107Z,6.07
2022-09-26T10:58:10.085Z,6.07
2022-09-26T11:00:43.767Z,6.47
2022-09-26T11:03:22.066Z,6.97
2022-09-26T11:06:24.447Z,4.13
2022-09-26T11:08:57.338Z,5.20
2022-09-26T11:11:53.555Z,4.60
2022-09-26T11:14:28.221Z,5.07
2022-09-26T11:17:03.415Z,6.00
2022-09-26T11:19:39.442Z,6.70
2022-09-26T11:22:16.123Z,3.60
2022-09-26T11:24:51.593Z,5.88
2022-09-26T11:27:30.554Z,4.50
2022-09-26T11:30:09.192Z,4.65
2022-09-26T11:32:42.287Z,5.32
2022-09-26T11:35:49.911Z,5.10
2022-09-26T11:38:35.968Z,4.45
2022-09-26T11:41:14.677Z,4.63
2022-09-26T11:43:53.327Z,4.33
2022-09-26T11:46:54.667Z,4.80
2022-09-26T11:50:01.250Z,10.02
2022-09-26T11:52:53.388Z,4.13
2022-09-26T11:55:31.079Z,4.90
2022-09-26T11:58:06.354Z,6.10
2022-09-26T12:00:43.565Z,5.60
2022-09-26T12:03:53.906Z,5.65
2022-09-26T12:06:33.571Z,3.25
2022-09-26T12:09:45.049Z,5.03
2022-09-26T12:12:19.757Z,5.60
2022-09-26T12:15:02.957Z,7.93
2022-09-26T12:17:44.171Z,8.18
2022-09-26T12:20:21.645Z,5.25
2022-09-26T12:22:59.118Z,6.50
2022-09-26T12:25:45.344Z,5.80
2022-09-26T12:28:32.120Z,5.75
2022-09-26T12:31:09.745Z,5.47
2022-09-26T12:33:50.934Z,4.43
2022-09-26T12:36:31.395Z,4.93
2022-09-26T12:39:15.658Z,3.95
2022-09-26T12:42:07.738Z,4.28
2022-09-26T12:44:59.741Z,4.32
2022-09-26T12:48:05.141Z,4.55
2022-09-26T12:50:44.185Z,5.22
2022-09-26T12:53:31.661Z,6.00
2022-09-26T12:56:07.327Z,4.88
2022-09-26T12:58:50.325Z,4.88
2022-09-26T13:01:37.786Z,6.40
2022-09-26T13:04:36.114Z,5.15
2022-09-26T13:07:19.480Z,4.32
2022-09-26T13:10:10.776Z,4.40
2022-09-26T13:13:02.666Z,5.75
2022-09-26T13:15:40.061Z,4.80
2022-09-26T13:18:13.936Z,4.15
2022-09-26T13:20:51.908Z,4.72
2022-09-26T13:23:28.742Z,5.22
2022-09-26T13:25:59.765Z,5.35
2022-09-26T13:28:37.710Z,4.88
2022-09-26T13:31:16.426Z,3.92
2022-09-26T13:33:48.919Z,3.30
2022-09-26T13:36:20.309Z,3.53
2022-09-26T13:38:58.579Z,3.40
2022-09-26T13:41:34.060Z,5.15
2022-09-26T13:44:17.982Z,3.85
2022-09-26T13:47:01.388Z,3.63
2022-09-26T13:49:43.823Z,5.18
2022-09-26T13:52:24.143Z,3.60
2022-09-26T13:54:57.670Z,5.32
2022-09-26T13:57:39.738Z,5.82
2022-09-26T14:00:41.060Z,5.82
2022-09-26T14:03:40.625Z,3.20
2022-09-26T14:08:55.567Z,4.22
2022-09-26T14:11:30.648Z,3.95
2022-09-26T14:14:37.640Z,5.50
2022-09-26T14:17:45.024Z,3.53
2022-09-26T14:20:20.130Z,4.70
2022-09-26T14:22:51.907Z,5.68
2022-09-26T14:25:53.418Z,6.40
2022-09-26T14:28:31.834Z,7.03
2022-09-26T14:31:32.798Z,5.72
2022-09-26T14:34:19.612Z,2.95
2022-09-26T14:36:49.902Z,5.43
2022-09-26T14:39:34.948Z,9.10
2022-09-26T14:42:19.192Z,6.60
2022-09-26T14:44:53.491Z,3.22
2022-09-26T14:47:21.152Z,4.90
2022-09-26T14:50:05.646Z,8.60
2022-09-26T14:52:37.752Z,4.38
2022-09-26T14:55:07.599Z,4.78
2022-09-26T15:00:04.911Z,9.25
2022-09-26T15:02:39.507Z,6.85
2022-09-26T15:05:22.353Z,6.78
2022-09-26T15:07:52.329Z,6.00
2022-09-26T15:10:37.201Z,6.10
2022-09-26T15:13:18.557Z,4.43
2022-09-26T15:15:55.434Z,12.23
2022-09-26T15:18:35.008Z,12.02
2022-09-26T15:21:11.203Z,15.68
2022-09-26T15:23:48.502Z,20.95
2022-09-26T15:26:19.775Z,21.08
2022-09-26T15:28:49.661Z,17.05
2022-09-26T15:31:22.657Z,14.73
2022-09-26T15:33:51.875Z,18.65
2022-09-26T15:36:20.245Z,20.30
2022-09-26T15:38:49.348Z,11.95
2022-09-26T15:41:38.312Z,11.38
2022-09-26T15:44:16.218Z,12.57
2022-09-26T15:46:43.509Z,14.80
2022-09-26T15:49:14.498Z,13.98
2022-09-26T15:51:44.469Z,9.48
2022-09-26T15:54:22.783Z,10.23
2022-09-26T15:56:51.185Z,9.15
2022-09-26T15:59:24.022Z,13.07
2022-09-26T16:01:52.562Z,8.50
2022-09-26T16:04:22.200Z,13.17
2022-09-26T16:06:57.405Z,10.40
2022-09-26T16:09:31.884Z,9.13
2022-09-26T16:12:01.285Z,12.27
2022-09-26T16:14:41.428Z,13.27
2022-09-26T16:17:20.364Z,25.38
2022-09-26T16:19:49.445Z,19.67
2022-09-26T16:22:44.721Z,20.60
2022-09-26T16:25:34.322Z,9.13
2022-09-26T16:28:24.969Z,21.50
2022-09-26T16:31:08.932Z,64.20
2022-09-26T16:33:38.896Z,31.40
2022-09-26T16:36:15.309Z,18.55
2022-09-26T16:38:42.617Z,12.45
2022-09-26T16:41:36.516Z,12.02
2022-09-26T16:44:26.155Z,36.85
2022-09-26T16:46:59.004Z,15.70
2022-09-26T16:49:40.262Z,11.85
2022-09-26T16:52:20.548Z,18.00
2022-09-26T16:54:47.886Z,17.83
2022-09-26T16:57:20.858Z,17.75
2022-09-26T16:59:48.352Z,16.88
2022-09-26T17:02:15.633Z,18.90
2022-09-26T17:04:45.543Z,14.48
2022-09-26T17:07:15.027Z,13.82
2022-09-26T17:09:44.086Z,15.80
2022-09-26T17:12:21.655Z,16.38
2022-09-26T17:14:55.366Z,13.35
2022-09-26T17:17:28.460Z,17.98
2022-09-26T17:20:02.163Z,14.40
2022-09-26T17:22:31.164Z,15.75
2022-09-26T17:25:12.059Z,19.90
2022-09-26T17:27:42.730Z,19.67
2022-09-26T17:30:18.899Z,28.27
2022-09-26T17:32:51.554Z,25.15
2022-09-26T17:35:27.643Z,22.05
2022-09-26T17:37:56.811Z,21.77
2022-09-26T17:40:27.641Z,19.67
2022-09-26T17:42:57.924Z,17.23
2022-09-26T17:45:29.188Z,14.68
2022-09-26T17:47:58.584Z,15.32
2022-09-26T17:50:31.291Z,16.55
2022-09-26T17:53:01.337Z,12.10
2022-09-26T17:55:29.407Z,12.73
2022-09-26T17:57:58.506Z,10.93
2022-09-26T18:00:30.166Z,11.90
2022-09-26T18:03:02.548Z,15.32
2022-09-26T18:05:32.444Z,17.05
2022-09-26T18:08:07.995Z,18.23
2022-09-26T18:10:35.590Z,12.35
2022-09-26T18:13:12.922Z,10.60
2022-09-26T18:15:42.070Z,9.15
2022-09-26T18:18:13.593Z,8.77
2022-09-26T18:20:41.216Z,17.38
2022-09-26T18:23:16.541Z,10.93
2022-09-26T18:25:47.268Z,7.70
2022-09-26T18:28:20.608Z,8.70
2022-09-26T18:31:04.198Z,14.07
2022-09-26T18:33:37.204Z,7.13
2022-09-26T18:36:05.945Z,12.90
2022-09-26T18:38:33.307Z,11.02
2022-09-26T18:41:00.877Z,13.75
2022-09-26T18:43:33.764Z,8.43
2022-09-26T18:46:09.078Z,11.15
2022-09-26T18:48:37.370Z,17.02
2022-09-26T18:51:05.312Z,18.05
2022-09-26T18:53:42.638Z,10.55
2022-09-26T18:56:29.541Z,6.75
2022-09-26T18:58:58.188Z,7.60
2022-09-26T19:01:28.872Z,6.00
2022-09-26T19:03:59.074Z,6.68
2022-09-26T19:06:30.480Z,11.18
2022-09-26T19:08:59.572Z,10.00
2022-09-26T19:11:29.339Z,11.27
2022-09-26T19:14:00.976Z,11.63
2022-09-26T19:16:28.262Z,10.23
2022-09-26T19:18:55.443Z,7.45
2022-09-26T19:21:31.132Z,9.93
2022-09-26T19:24:01.360Z,9.15
2022-09-26T19:26:34.565Z,10.23
2022-09-26T19:29:11.946Z,14.68
2022-09-26T19:31:39.592Z,17.35
2022-09-26T19:34:07.036Z,10.60
2022-09-26T19:36:34.215Z,9.52
2022-09-26T19:39:01.546Z,10.82
2022-09-26T19:41:28.849Z,10.43
2022-09-26T19:43:57.421Z,13.95
2022-09-26T19:46:27.777Z,15.55
2022-09-26T19:48:55.019Z,12.95
2022-09-26T19:51:22.705Z,14.00
2022-09-26T19:53:49.876Z,11.25
2022-09-26T19:56:17.936Z,13.50
2022-09-26T19:58:50.384Z,16.83
2022-09-26T20:01:20.883Z,14.00
2022-09-26T20:03:50.177Z,12.68
2022-09-26T20:06:19.528Z,23.67
2022-09-26T20:08:47.623Z,16.58
2022-09-26T20:11:16.585Z,13.70
2022-09-26T20:14:02.576Z,21.42
2022-09-26T20:16:31.767Z,22.15
2022-09-26T20:19:02.813Z,13.90
2022-09-26T20:21:30.984Z,15.65
2022-09-26T20:24:00.747Z,15.13
2022-09-26T20:28:59.665Z,14.95
2022-09-26T20:31:28.742Z,14.77
2022-09-26T20:34:00.138Z,10.90
2022-09-26T20:36:32.182Z,9.55
2022-09-26T20:39:02.830Z,8.80
2022-09-26T20:41:33.150Z,10.32
2022-09-26T20:44:05.960Z,13.07
2022-09-26T20:46:38.456Z,12.55
2022-09-26T20:49:09.057Z,14.48
2022-09-26T20:51:37.658Z,13.18
2022-09-26T20:54:06.612Z,13.15
2022-09-26T20:56:33.884Z,12.65
2022-09-26T20:59:01.058Z,16.77
2022-09-26T21:01:28.891Z,23.90
2022-09-26T21:03:56.966Z,15.40
2022-09-26T21:06:28.031Z,19.98
2022-09-26T21:08:57.362Z,8.57
2022-09-26T21:11:24.958Z,13.48
2022-09-26T21:13:52.334Z,16.98
2022-09-26T21:16:21.317Z,10.80
2022-09-26T21:18:51.471Z,9.50
2022-09-26T21:21:22.539Z,8.32
2022-09-26T21:26:41.325Z,15.05
2022-09-26T21:29:13.436Z,12.18
2022-09-26T21:31:41.471Z,14.20
2022-09-26T21:34:13.714Z,15.25
2022-09-26T21:36:41.147Z,13.07
2022-09-26T21:39:08.409Z,11.73
2022-09-26T21:41:37.461Z,11.18
2022-09-26T21:44:09.257Z,11.80
2022-09-26T21:46:37.956Z,12.88
2022-09-26T21:49:05.153Z,12.98
2022-09-26T21:51:32.663Z,11.68
2022-09-26T21:54:06.264Z,16.98
2022-09-26T21:56:40.280Z,16.10
2022-09-26T21:59:07.733Z,17.77
2022-09-26T22:01:35.022Z,18.85
2022-09-26T22:04:02.565Z,12.32
2022-09-26T22:06:29.646Z,16.27
2022-09-26T22:08:56.687Z,8.27
2022-09-26T22:11:23.833Z,13.48
2022-09-26T22:13:52.292Z,16.73
2022-09-26T22:16:21.064Z,10.93
2022-09-26T22:18:49.812Z,12.17
2022-09-26T22:21:17.020Z,11.15
2022-09-26T22:23:44.107Z,11.35
2022-09-26T22:26:11.286Z,10.05
2022-09-26T22:28:38.432Z,11.00
2022-09-26T22:31:07.150Z,9.40
2022-09-26T22:33:34.395Z,9.60
2022-09-26T22:36:02.070Z,7.82
2022-09-26T22:38:29.213Z,13.73
2022-09-26T22:40:57.976Z,8.38
2022-09-26T22:43:26.490Z,9.83
2022-09-26T22:45:53.787Z,9.48
2022-09-26T22:48:22.274Z,8.75
2022-09-26T22:50:49.739Z,9.10
2022-09-26T22:53:16.819Z,8.30
2022-09-26T22:55:52.376Z,10.77
2022-09-26T22:58:19.518Z,7.38
2022-09-26T23:00:48.070Z,8.80
2022-09-26T23:03:15.468Z,6.25
2022-09-26T23:05:46.863Z,6.78
2022-09-26T23:08:14.068Z,8.20
2022-09-26T23:10:48.423Z,9.48
2022-09-26T23:13:15.700Z,7.32
2022-09-26T23:15:42.926Z,7.22
2022-09-26T23:18:10.146Z,9.52
2022-09-26T23:20:38.675Z,9.60
2022-09-26T23:23:08.162Z,6.50
2022-09-26T23:25:36.959Z,6.50
2022-09-26T23:28:04.267Z,9.63
2022-09-26T23:30:31.481Z,5.72
2022-09-26T23:32:58.576Z,11.90
2022-09-26T23:35:25.665Z,9.00
2022-09-26T23:37:52.712Z,9.70
2022-09-26T23:40:21.314Z,10.02
2022-09-26T23:42:48.361Z,10.38
2022-09-26T23:45:15.809Z,10.13
2022-09-26T23:47:42.891Z,9.00
2022-09-26T23:50:10.002Z,12.30
2022-09-26T23:52:37.125Z,10.52
2022-09-26T23:55:04.885Z,7.68
2022-09-26T23:57:33.468Z,9.77
